createdAt,value
2018-02-23T00:00:23.171Z,89.02
2018-02-23T00:02:50.838Z,88.99
2018-02-23T00:05:18.484Z,89.07
2018-02-23T00:07:47.979Z,88.79
2018-02-23T00:10:15.711Z,88.68
2018-02-23T00:12:43.278Z,88.63
2018-02-23T00:15:10.889Z,88.60
2018-02-23T00:17:38.518Z,88.48
2018-02-23T00:20:06.087Z,88.26
2018-02-23T00:22:41.654Z,88.26
2018-02-23T00:25:09.224Z,88.07
2018-02-23T00:27:36.822Z,87.91
2018-02-23T00:30:04.452Z,87.65
2018-02-23T00:32:32.008Z,87.81
2018-02-23T00:34:59.573Z,87.64
2018-02-23T00:37:27.219Z,87.93
2018-02-23T00:39:54.810Z,87.98
2018-02-23T00:42:23.247Z,88.09
2018-02-23T00:44:50.952Z,87.84
2018-02-23T00:47:18.514Z,88.02
2018-02-23T00:49:46.087Z,88.35
2018-02-23T00:52:13.710Z,88.41
2018-02-23T00:54:41.278Z,88.51
2018-02-23T00:57:08.852Z,88.16
2018-02-23T00:59:36.538Z,87.97
2018-02-23T01:02:04.114Z,87.74
2018-02-23T01:04:31.704Z,87.96
2018-02-23T01:06:59.351Z,88.14
2018-02-23T01:09:26.918Z,88.02
2018-02-23T01:11:54.490Z,88.00
2018-02-23T01:14:22.187Z,88.02
2018-02-23T01:16:49.769Z,87.84
2018-02-23T01:19:17.411Z,87.31
2018-02-23T01:21:45.028Z,87.51
2018-02-23T01:24:12.656Z,87.47
2018-02-23T01:26:40.290Z,87.49
2018-02-23T01:29:07.899Z,87.48
2018-02-23T01:31:35.462Z,87.40
2018-02-23T01:34:03.034Z,87.62
2018-02-23T01:36:30.658Z,87.69
2018-02-23T01:38:58.222Z,87.83
2018-02-23T01:41:25.852Z,87.87
2018-02-23T01:43:53.474Z,88.08
2018-02-23T01:46:21.108Z,88.16
2018-02-23T01:48:48.686Z,88.08
2018-02-23T01:51:16.326Z,88.02
2018-02-23T01:53:43.906Z,88.23
2018-02-23T01:56:11.479Z,88.34
2018-02-23T01:58:39.098Z,88.45
2018-02-23T02:01:06.733Z,88.40
2018-02-23T02:03:34.337Z,88.74
2018-02-23T02:06:01.954Z,88.61
2018-02-23T02:08:29.503Z,88.78
2018-02-23T02:10:57.071Z,89.04
2018-02-23T02:13:24.712Z,88.93
2018-02-23T02:15:52.277Z,89.13
2018-02-23T02:18:19.913Z,89.70
2018-02-23T02:20:47.534Z,90.21
2018-02-23T02:23:15.241Z,90.25
2018-02-23T02:25:42.818Z,90.43
2018-02-23T02:28:10.446Z,90.40
2018-02-23T02:30:38.028Z,90.57
2018-02-23T02:33:05.604Z,90.46
2018-02-23T02:35:33.222Z,90.80
2018-02-23T02:38:00.787Z,90.89
2018-02-23T02:40:28.353Z,90.91
2018-02-23T02:42:56.052Z,90.63
2018-02-23T02:45:23.659Z,90.53
2018-02-23T02:47:51.299Z,90.41
2018-02-23T02:50:19.012Z,90.38
2018-02-23T02:52:46.586Z,90.55
2018-02-23T02:55:14.210Z,90.63
2018-02-23T02:57:41.829Z,90.21
2018-02-23T03:00:09.394Z,90.17
2018-02-23T03:02:36.963Z,90.43
2018-02-23T03:05:04.595Z,90.38
2018-02-23T03:07:32.173Z,90.10
2018-02-23T03:09:59.743Z,89.65
2018-02-23T03:12:27.427Z,89.62
2018-02-23T03:14:55.046Z,89.52
2018-02-23T03:17:22.632Z,89.38
2018-02-23T03:19:50.260Z,89.33
2018-02-23T03:22:17.895Z,89.20
2018-02-23T03:24:45.567Z,89.53
2018-02-23T03:27:13.187Z,89.64
2018-02-23T03:29:40.764Z,89.49
2018-02-23T03:32:08.394Z,89.64
2018-02-23T03:34:36.019Z,89.80
2018-02-23T03:37:03.582Z,89.57
2018-02-23T03:39:31.163Z,89.49
2018-02-23T03:41:58.790Z,89.60
2018-02-23T03:44:26.369Z,89.58
2018-02-23T03:46:53.939Z,89.39
2018-02-23T03:49:21.570Z,89.23
2018-02-23T03:51:49.200Z,89.04
2018-02-23T03:54:16.770Z,88.78
2018-02-23T03:56:44.403Z,88.62
2018-02-23T03:59:11.970Z,88.50
2018-02-23T04:01:39.538Z,88.66
2018-02-23T04:04:07.228Z,88.41
2018-02-23T04:06:34.799Z,88.48
2018-02-23T04:09:02.368Z,88.51
2018-02-23T04:11:30.004Z,88.52
2018-02-23T04:13:57.583Z,88.44
2018-02-23T04:16:25.150Z,88.24
2018-02-23T04:18:52.775Z,88.32
2018-02-23T04:21:20.404Z,88.25
2018-02-23T04:23:47.972Z,88.16
2018-02-23T04:26:15.658Z,88.06
2018-02-23T04:28:43.277Z,87.87
2018-02-23T04:31:10.851Z,87.62
2018-02-23T04:33:38.539Z,87.79
2018-02-23T04:36:06.133Z,87.78
2018-02-23T04:38:33.708Z,87.75
2018-02-23T04:41:01.343Z,87.62
2018-02-23T04:43:28.905Z,87.84
2018-02-23T04:45:56.466Z,87.81
2018-02-23T04:48:24.092Z,87.91
2018-02-23T04:50:51.729Z,88.01
2018-02-23T04:53:19.290Z,88.09
2018-02-23T04:55:46.906Z,88.08
2018-02-23T04:58:14.481Z,88.15
2018-02-23T05:00:42.107Z,88.19
2018-02-23T05:03:09.727Z,88.05
2018-02-23T05:05:37.324Z,87.90
2018-02-23T05:08:04.887Z,87.87
2018-02-23T05:10:32.527Z,87.50
2018-02-23T05:13:00.171Z,87.26
2018-02-23T05:15:27.796Z,87.15
2018-02-23T05:17:55.436Z,87.17
2018-02-23T05:20:23.019Z,86.98
2018-02-23T05:22:50.591Z,87.05
2018-02-23T05:25:18.291Z,87.23
2018-02-23T05:27:45.877Z,87.33
2018-02-23T05:30:13.456Z,87.40
2018-02-23T05:32:41.191Z,87.48
2018-02-23T05:35:08.835Z,87.50
2018-02-23T05:37:36.410Z,87.44
2018-02-23T05:40:04.046Z,87.49
2018-02-23T05:42:31.614Z,87.64
2018-02-23T05:44:59.234Z,87.52
2018-02-23T05:47:26.862Z,87.68
2018-02-23T05:49:54.434Z,87.93
2018-02-23T05:52:22.011Z,88.18
2018-02-23T05:54:49.691Z,88.42
2018-02-23T05:57:17.327Z,88.34
2018-02-23T05:59:44.899Z,88.51
2018-02-23T06:02:12.532Z,88.35
2018-02-23T06:04:40.114Z,87.98
2018-02-23T06:07:07.754Z,87.72
2018-02-23T06:09:35.439Z,87.77
2018-02-23T06:12:03.068Z,87.66
2018-02-23T06:14:30.711Z,87.76
2018-02-23T06:16:58.409Z,87.77
2018-02-23T06:19:31.651Z,87.44
2018-02-23T06:21:59.324Z,87.39
2018-02-23T06:24:26.901Z,87.04
2018-02-23T06:26:54.470Z,87.27
2018-02-23T06:29:22.144Z,87.07
2018-02-23T06:31:49.722Z,87.12
2018-02-23T06:34:17.351Z,86.99
2018-02-23T06:36:44.987Z,86.61
2018-02-23T06:39:12.559Z,86.70
2018-02-23T06:41:40.130Z,86.86
2018-02-23T06:44:07.736Z,86.19
2018-02-23T06:46:35.305Z,85.96
2018-02-23T06:49:02.871Z,85.66
2018-02-23T06:51:30.555Z,85.38
2018-02-23T06:53:58.179Z,85.07
2018-02-23T06:56:25.811Z,84.75
2018-02-23T06:58:53.508Z,85.13
2018-02-23T07:01:21.150Z,85.04
2018-02-23T07:03:48.819Z,84.92
2018-02-23T07:06:16.423Z,84.72
2018-02-23T07:08:43.991Z,84.59
2018-02-23T07:11:11.583Z,84.31
2018-02-23T07:13:39.280Z,83.86
2018-02-23T07:16:06.981Z,83.35
2018-02-23T07:18:34.561Z,83.56
2018-02-23T07:21:02.277Z,83.88
2018-02-23T07:23:29.914Z,83.93
2018-02-23T07:25:57.584Z,83.96
2018-02-23T07:28:25.273Z,83.70
2018-02-23T07:30:52.917Z,83.85
2018-02-23T07:33:20.485Z,84.28
2018-02-23T07:35:48.179Z,84.76
2018-02-23T07:38:15.821Z,84.57
2018-02-23T07:40:43.399Z,84.67
2018-02-23T07:43:11.030Z,84.85
2018-02-23T07:45:38.613Z,84.87
2018-02-23T07:48:06.188Z,84.84
2018-02-23T07:50:33.859Z,84.56
2018-02-23T07:53:01.543Z,84.37
2018-02-23T07:55:29.110Z,83.88
2018-02-23T07:57:56.738Z,83.50
2018-02-23T08:00:24.351Z,83.33
2018-02-23T08:02:51.912Z,83.30
2018-02-23T08:05:19.547Z,83.14
2018-02-23T08:07:47.121Z,84.38
2018-02-23T08:10:14.761Z,84.57
2018-02-23T08:12:42.394Z,84.39
2018-02-23T08:15:10.072Z,84.33
2018-02-23T08:17:37.660Z,84.55
2018-02-23T08:20:05.317Z,84.45
2018-02-23T08:22:32.926Z,84.36
2018-02-23T08:25:00.559Z,83.73
2018-02-23T08:27:28.245Z,84.25
2018-02-23T08:29:55.825Z,83.85
2018-02-23T08:32:23.464Z,82.91
2018-02-23T08:34:51.111Z,82.56
2018-02-23T08:37:18.742Z,82.12
2018-02-23T08:39:46.319Z,82.11
2018-02-23T08:42:13.963Z,82.38
2018-02-23T08:44:41.538Z,82.02
2018-02-23T08:47:09.119Z,81.80
2018-02-23T08:49:36.816Z,81.90
2018-02-23T08:52:04.394Z,82.84
2018-02-23T08:54:31.970Z,83.05
2018-02-23T08:56:59.606Z,81.94
2018-02-23T08:59:27.190Z,81.77
2018-02-23T09:01:54.811Z,82.23
2018-02-23T09:04:22.443Z,81.19
2018-02-23T09:06:50.011Z,81.30
2018-02-23T09:09:17.583Z,81.10
2018-02-23T09:11:45.297Z,81.32
2018-02-23T09:14:12.984Z,80.39
2018-02-23T09:16:40.615Z,80.50
2018-02-23T09:19:08.301Z,80.62
2018-02-23T09:21:35.882Z,80.79
2018-02-23T09:24:03.448Z,80.94
2018-02-23T09:26:31.087Z,81.46
2018-02-23T09:28:58.660Z,80.83
2018-02-23T09:31:26.336Z,80.69
2018-02-23T09:34:05.789Z,80.33
2018-02-23T09:36:33.358Z,80.32
2018-02-23T09:39:01.007Z,80.10
2018-02-23T09:41:28.637Z,79.74
2018-02-23T09:43:56.283Z,78.92
2018-02-23T09:46:23.927Z,79.45
2018-02-23T09:48:51.565Z,79.34
2018-02-23T09:51:19.199Z,79.26
2018-02-23T09:53:46.778Z,77.84
2018-02-23T09:56:14.544Z,77.63
2018-02-23T09:58:42.119Z,76.81
2018-02-23T10:01:09.712Z,76.63
2018-02-23T10:03:37.464Z,75.68
2018-02-23T10:06:05.227Z,76.86
2018-02-23T10:08:32.808Z,75.69
2018-02-23T10:11:00.442Z,74.81
2018-02-23T10:13:28.020Z,75.20
2018-02-23T10:15:55.650Z,75.52
2018-02-23T10:18:23.269Z,75.40
2018-02-23T10:20:50.839Z,74.86
2018-02-23T10:23:18.402Z,75.27
2018-02-23T10:25:46.041Z,75.23
2018-02-23T10:28:13.626Z,74.02
2018-02-23T10:30:41.190Z,73.49
2018-02-23T10:33:08.826Z,73.54
2018-02-23T10:35:36.501Z,73.82
2018-02-23T10:38:04.187Z,72.66
2018-02-23T10:40:31.863Z,73.78
2018-02-23T10:42:59.524Z,72.84
2018-02-23T10:45:27.137Z,73.67
2018-02-23T10:47:59.207Z,72.83
2018-02-23T10:50:26.821Z,71.49
2018-02-23T10:52:54.399Z,72.37
2018-02-23T10:55:22.104Z,72.95
2018-02-23T10:57:49.770Z,72.49
2018-02-23T11:00:17.371Z,73.54
2018-02-23T11:02:45.052Z,71.92
2018-02-23T11:05:12.619Z,72.72
2018-02-23T11:07:40.218Z,72.25
2018-02-23T11:10:07.914Z,71.55
2018-02-23T11:12:35.534Z,71.67
2018-02-23T11:15:03.094Z,71.07
2018-02-23T11:17:30.724Z,71.76
2018-02-23T11:19:58.396Z,71.34
2018-02-23T11:22:25.976Z,71.57
2018-02-23T11:24:53.614Z,71.66
2018-02-23T11:27:21.187Z,71.68
2018-02-23T11:29:48.802Z,72.09
2018-02-23T11:32:16.481Z,72.49
2018-02-23T11:34:44.115Z,71.45
2018-02-23T11:37:11.760Z,71.87
2018-02-23T11:39:39.382Z,72.22
2018-02-23T11:42:07.007Z,71.56
2018-02-23T11:44:34.650Z,71.13
2018-02-23T11:47:02.274Z,71.14
2018-02-23T11:49:29.838Z,70.86
2018-02-23T11:51:57.407Z,69.96
2018-02-23T11:54:25.047Z,69.99
2018-02-23T11:56:52.640Z,68.38
2018-02-23T11:59:20.241Z,69.72
2018-02-23T12:01:48.535Z,69.85
2018-02-23T12:04:16.163Z,69.75
2018-02-23T12:06:43.795Z,69.40
2018-02-23T12:09:11.418Z,68.28
2018-02-23T12:11:38.985Z,68.71
2018-02-23T12:14:06.550Z,69.54
2018-02-23T12:16:34.185Z,69.50
2018-02-23T12:19:01.849Z,68.18
2018-02-23T12:21:29.509Z,69.01
2018-02-23T12:23:57.247Z,68.83
2018-02-23T12:26:24.833Z,69.82
2018-02-23T12:28:52.406Z,68.37
2018-02-23T12:31:20.017Z,69.05
2018-02-23T12:33:47.586Z,69.17
2018-02-23T12:36:15.225Z,68.12
2018-02-23T12:38:42.858Z,68.29
2018-02-23T12:41:10.488Z,69.17
2018-02-23T12:43:38.097Z,69.31
2018-02-23T12:46:05.694Z,69.94
2018-02-23T12:48:33.258Z,69.06
2018-02-23T12:51:00.947Z,69.81
2018-02-23T12:53:28.581Z,70.19
2018-02-23T12:55:56.156Z,69.97
2018-02-23T12:58:23.716Z,69.27
2018-02-23T13:00:51.355Z,69.43
2018-02-23T13:03:18.983Z,69.75
2018-02-23T13:05:46.611Z,70.11
2018-02-23T13:08:14.244Z,70.14
2018-02-23T13:10:41.815Z,70.79
2018-02-23T13:13:09.395Z,71.60
2018-02-23T13:15:37.037Z,70.44
2018-02-23T13:18:04.631Z,69.72
2018-02-23T13:20:32.212Z,69.89
2018-02-23T13:22:59.843Z,70.28
2018-02-23T13:25:27.484Z,71.00
2018-02-23T13:28:00.528Z,71.29
2018-02-23T13:30:28.215Z,71.15
2018-02-23T13:32:55.849Z,70.42
2018-02-23T13:35:23.533Z,70.46
2018-02-23T13:37:51.122Z,72.40
2018-02-23T13:40:18.731Z,72.13
2018-02-23T13:42:46.401Z,72.52
2018-02-23T13:45:14.053Z,73.27
2018-02-23T13:47:41.707Z,73.48
2018-02-23T13:50:09.356Z,73.26
2018-02-23T13:52:37.011Z,73.88
2018-02-23T13:55:04.624Z,73.97
2018-02-23T13:57:32.263Z,74.37
2018-02-23T14:00:00.728Z,73.39
2018-02-23T14:02:28.298Z,73.41
2018-02-23T14:04:55.927Z,73.63
2018-02-23T14:07:24.488Z,74.44
2018-02-23T14:09:52.104Z,75.45
2018-02-23T14:12:19.752Z,76.21
2018-02-23T14:14:47.427Z,76.08
2018-02-23T14:17:15.056Z,76.61
2018-02-23T14:19:42.796Z,77.50
2018-02-23T14:22:10.372Z,77.00
2018-02-23T14:24:37.957Z,77.87
2018-02-23T14:27:05.583Z,77.85
2018-02-23T14:29:33.163Z,77.89
2018-02-23T14:32:00.790Z,78.42
2018-02-23T14:34:28.423Z,78.38
2018-02-23T14:36:55.990Z,78.03
2018-02-23T14:39:23.579Z,78.38
2018-02-23T14:41:51.214Z,78.59
2018-02-23T14:44:18.857Z,78.94
2018-02-23T14:46:46.498Z,79.89
2018-02-23T14:49:21.048Z,79.45
2018-02-23T14:51:48.715Z,79.77
2018-02-23T14:54:16.546Z,80.17
2018-02-23T14:56:44.187Z,79.88
2018-02-23T14:59:11.757Z,80.12
2018-02-23T15:01:39.400Z,80.92
2018-02-23T15:04:07.090Z,80.66
2018-02-23T15:06:34.669Z,80.85
2018-02-23T15:09:02.285Z,81.62
2018-02-23T15:11:29.914Z,81.51
2018-02-23T15:13:57.482Z,81.59
2018-02-23T15:16:25.114Z,81.75
2018-02-23T15:18:52.770Z,81.95
2018-02-23T15:21:20.369Z,81.87
2018-02-23T15:23:47.955Z,82.01
2018-02-23T15:26:15.583Z,82.17
2018-02-23T15:28:43.208Z,82.39
2018-02-23T15:31:22.727Z,82.90
2018-02-23T15:33:50.296Z,83.30
2018-02-23T15:36:17.869Z,83.01
2018-02-23T15:38:45.579Z,83.16
2018-02-23T15:41:13.165Z,82.66
2018-02-23T15:43:40.755Z,82.96
2018-02-23T15:46:08.422Z,82.97
2018-02-23T15:48:43.539Z,83.20
2018-02-23T15:51:26.838Z,83.91
2018-02-23T15:53:54.468Z,84.07
2018-02-23T15:56:22.152Z,84.55
2018-02-23T15:58:49.844Z,85.06
2018-02-23T16:01:17.462Z,85.53
2018-02-23T16:03:45.147Z,85.71
2018-02-23T16:06:12.882Z,85.61
2018-02-23T16:08:40.505Z,85.49
2018-02-23T16:11:08.164Z,85.47
2018-02-23T16:13:35.839Z,85.37
2018-02-23T16:16:03.455Z,85.26
2018-02-23T16:18:31.032Z,85.55
2018-02-23T16:20:58.682Z,85.89
2018-02-23T16:23:26.422Z,85.70
2018-02-23T16:25:53.999Z,86.12
2018-02-23T16:28:21.625Z,86.17
2018-02-23T16:30:49.279Z,86.52
2018-02-23T16:33:16.864Z,86.31
2018-02-23T16:35:44.586Z,86.22
2018-02-23T16:38:12.210Z,86.23
2018-02-23T16:40:39.778Z,86.51
2018-02-23T16:43:07.410Z,86.68
2018-02-23T16:45:35.053Z,86.77
2018-02-23T16:48:02.626Z,86.86
2018-02-23T16:50:30.252Z,86.89
2018-02-23T16:52:57.843Z,86.85
2018-02-23T16:55:25.443Z,87.30
2018-02-23T16:57:53.070Z,87.33
2018-02-23T17:00:20.712Z,86.96
2018-02-23T17:02:48.347Z,86.90
2018-02-23T17:05:15.951Z,86.71
2018-02-23T17:07:43.553Z,86.95
2018-02-23T17:10:11.139Z,87.16
2018-02-23T17:12:38.771Z,87.21
2018-02-23T17:15:06.340Z,87.01
2018-02-23T17:17:33.924Z,87.03
2018-02-23T17:20:01.615Z,87.05
2018-02-23T17:22:29.211Z,87.19
2018-02-23T17:24:56.774Z,87.57
2018-02-23T17:27:24.500Z,87.86
2018-02-23T17:29:52.086Z,87.72
2018-02-23T17:32:19.674Z,87.92
2018-02-23T17:34:47.361Z,87.69
2018-02-23T17:37:14.920Z,87.71
2018-02-23T17:39:42.522Z,87.63
2018-02-23T17:42:10.199Z,87.79
2018-02-23T17:44:37.783Z,87.69
2018-02-23T17:47:05.419Z,87.71
2018-02-23T17:49:33.120Z,87.68
2018-02-23T17:52:00.716Z,87.62
2018-02-23T17:54:28.409Z,87.85
2018-02-23T17:56:56.054Z,87.96
2018-02-23T17:59:23.638Z,88.18
2018-02-23T18:01:51.206Z,88.27
2018-02-23T18:04:18.901Z,87.93
2018-02-23T18:06:46.470Z,87.77
2018-02-23T18:09:14.139Z,87.57
2018-02-23T18:11:41.767Z,87.45
2018-02-23T18:14:09.349Z,87.33
2018-02-23T18:16:36.927Z,87.49
2018-02-23T18:19:04.569Z,87.57
2018-02-23T18:21:32.212Z,87.74
2018-02-23T18:23:59.908Z,87.66
2018-02-23T18:26:27.591Z,87.55
2018-02-23T18:29:02.582Z,87.46
2018-02-23T18:31:30.266Z,87.31
2018-02-23T18:33:57.838Z,87.43
2018-02-23T18:36:25.410Z,87.28
2018-02-23T18:38:53.043Z,87.08
2018-02-23T18:41:20.748Z,86.92
2018-02-23T18:43:48.368Z,86.81
2018-02-23T18:46:16.055Z,86.74
2018-02-23T18:48:43.630Z,86.85
2018-02-23T18:51:11.250Z,86.58
2018-02-23T18:53:38.887Z,86.49
2018-02-23T18:56:06.518Z,86.36
2018-02-23T18:58:34.212Z,86.30
2018-02-23T19:01:01.839Z,86.26
2018-02-23T19:03:29.535Z,86.22
2018-02-23T19:05:57.160Z,86.19
2018-02-23T19:08:24.861Z,86.24
2018-02-23T19:10:52.515Z,86.26
2018-02-23T19:13:20.119Z,86.64
2018-02-23T19:15:47.811Z,86.64
2018-02-23T19:18:15.391Z,87.02
2018-02-23T19:20:42.992Z,87.08
2018-02-23T19:23:10.687Z,87.17
2018-02-23T19:25:38.371Z,87.24
2018-02-23T19:28:06.004Z,87.22
2018-02-23T19:30:33.683Z,87.39
2018-02-23T19:33:01.313Z,87.41
2018-02-23T19:35:28.938Z,87.18
2018-02-23T19:37:56.678Z,87.40
2018-02-23T19:40:24.404Z,87.53
2018-02-23T19:42:51.997Z,87.89
2018-02-23T19:45:19.676Z,88.01
2018-02-23T19:47:47.331Z,87.87
2018-02-23T19:50:14.939Z,87.96
2018-02-23T19:52:42.611Z,88.19
2018-02-23T19:55:10.207Z,88.19
2018-02-23T19:57:37.809Z,88.43
2018-02-23T20:00:05.464Z,88.37
2018-02-23T20:02:33.146Z,88.48
2018-02-23T20:05:00.807Z,88.42
2018-02-23T20:07:28.448Z,88.59
2018-02-23T20:09:56.018Z,88.66
2018-02-23T20:12:23.655Z,88.68
2018-02-23T20:14:51.398Z,88.92
2018-02-23T20:17:19.052Z,88.99
2018-02-23T20:19:46.626Z,88.71
2018-02-23T20:22:14.246Z,88.62
2018-02-23T20:24:41.899Z,88.78
2018-02-23T20:27:10.418Z,88.71
2018-02-23T20:29:38.152Z,88.63
2018-02-23T20:32:05.831Z,88.58
2018-02-23T20:34:33.452Z,88.36
2018-02-23T20:37:01.159Z,88.40
2018-02-23T20:39:28.782Z,88.55
2018-02-23T20:41:56.383Z,88.58
2018-02-23T20:44:24.053Z,88.60
2018-02-23T20:46:51.645Z,88.35
2018-02-23T20:49:19.309Z,88.12
2018-02-23T20:51:46.942Z,87.88
2018-02-23T20:57:45.007Z,87.61
2018-02-23T21:00:12.603Z,87.76
2018-02-23T21:02:40.196Z,87.83
2018-02-23T21:05:07.820Z,87.75
2018-02-23T21:07:35.408Z,87.68
2018-02-23T21:10:02.995Z,87.66
2018-02-23T21:12:30.643Z,87.75
2018-02-23T21:14:58.224Z,87.56
2018-02-23T21:17:25.803Z,87.60
2018-02-23T21:19:53.481Z,87.74
2018-02-23T21:22:21.138Z,87.65
2018-02-23T21:24:48.737Z,87.47
2018-02-23T21:27:16.448Z,87.79
2018-02-23T21:29:44.094Z,87.88
2018-02-23T21:32:11.675Z,87.84
2018-02-23T21:34:39.304Z,87.71
2018-02-23T21:37:06.874Z,87.67
2018-02-23T21:39:34.521Z,87.57
2018-02-23T21:42:02.135Z,87.79
2018-02-23T21:47:28.754Z,87.42
2018-02-23T21:49:56.371Z,87.51
2018-02-23T21:52:24.016Z,87.70
2018-02-23T21:54:51.668Z,87.63
2018-02-23T21:57:19.301Z,87.65
2018-02-23T21:59:46.926Z,87.71
2018-02-23T22:02:14.604Z,87.51
2018-02-23T22:04:42.296Z,87.50
2018-02-23T22:07:09.892Z,87.60
2018-02-23T22:09:37.531Z,87.85
2018-02-23T22:12:05.116Z,88.01
2018-02-23T22:14:32.701Z,88.21
2018-02-23T22:17:00.359Z,88.27
2018-02-23T22:19:28.006Z,88.44
2018-02-23T22:21:55.578Z,88.50
2018-02-23T22:24:23.444Z,88.54
2018-02-23T22:26:51.065Z,88.63
2018-02-23T22:29:18.681Z,88.59
2018-02-23T22:31:46.326Z,88.53
2018-02-23T22:34:13.877Z,88.55
2018-02-23T22:36:41.518Z,88.56
2018-02-23T22:39:09.198Z,88.54
2018-02-23T22:41:36.822Z,88.83
2018-02-23T22:44:04.390Z,88.81
2018-02-23T22:46:32.023Z,88.91
2018-02-23T22:48:59.652Z,89.30
2018-02-23T22:51:27.251Z,89.49
2018-02-23T22:53:54.949Z,89.48
2018-02-23T22:56:22.540Z,89.46
2018-02-23T22:58:50.120Z,89.69
2018-02-23T23:01:17.821Z,89.81
2018-02-23T23:03:45.450Z,89.78
2018-02-23T23:06:13.152Z,89.78
2018-02-23T23:08:40.794Z,89.91
2018-02-23T23:11:08.432Z,90.04
2018-02-23T23:13:35.978Z,90.09
2018-02-23T23:16:03.684Z,90.12
2018-02-23T23:18:31.272Z,89.97
2018-02-23T23:20:58.865Z,89.90
2018-02-23T23:23:26.565Z,89.80
2018-02-23T23:25:54.176Z,89.82
2018-02-23T23:28:21.749Z,89.77
2018-02-23T23:30:49.432Z,90.20
2018-02-23T23:33:18.024Z,90.06
2018-02-23T23:35:45.612Z,89.83
2018-02-23T23:38:13.231Z,90.05
2018-02-23T23:40:40.802Z,90.18
2018-02-23T23:43:08.394Z,90.29
2018-02-23T23:45:36.022Z,90.01
2018-02-23T23:48:03.588Z,89.87
2018-02-23T23:50:31.217Z,89.75
2018-02-23T23:52:58.859Z,89.61
2018-02-23T23:55:26.501Z,89.54
2018-02-23T23:57:54.076Z,89.66
